Independence — WDD6659 — position and weather

sailwx.info

Track history (hours):
 
Tides and Currents Weather Stations Pressure Air Temp Water Temp Dewpoint Dewpoint Depression Visibility Wind Speed Wind Dir Waves Ship Positions

Independence

Owner: Sortwell, Inc. DBA AmNav Maritime Services, Oakland, CA. More information available from US FCC via Universal Licensing System and Coast Guard Vessel Documentation Center.

Last reported at 2014-Oct-21 08:24 UTC. Time now 2014-Oct-21 10:27 UTC.
Position N 33°44' W 118°17'.

Length 24 m; draft 4.9 m.

Type: Tug. MMSI: 367175860.

Date/timePositionNaut miles runAvg speedWind from/ knotsBaromVisibWave heightAir tempDewpointWater temp
2014-Oct-21 08:24N 33°44' W 118°17'1 0.1
2014-Oct-21 01:33N 33°45' W 118°16'1 0.6
2014-Oct-20 23:23N 33°44' W 118°16'0 0.0
2014-Oct-19 20:29N 33°44' W 118°17'0 0.0
2014-Oct-19 19:31N 33°44' W 118°17'0 0.0
2014-Oct-19 16:28N 33°44' W 118°17'1 0.1
2014-Oct-19 01:19N 33°44' W 118°16'1 0.9
2014-Oct-19 00:24N 33°44' W 118°17'0 0.0
2014-Oct-18 23:22N 33°44' W 118°17'0 0.0
2014-Oct-18 22:27N 33°44' W 118°17'3 2.5
2014-Oct-18 21:24N 33°44' W 118°13'2 2.8
2014-Oct-18 20:33N 33°46' W 118°13'0 0.0
2014-Oct-18 19:34N 33°46' W 118°13'4 3.4
2014-Oct-18 18:24N 33°44' W 118°10'2 2.8
2014-Oct-18 17:33N 33°44' W 118°13'3 2.8
2014-Oct-18 16:21N 33°44' W 118°17'4 5.5
2014-Oct-18 15:33N 33°44' W 118°11'2 2.4
2014-Oct-18 14:33N 33°45' W 118°13'3 2.7
2014-Oct-18 13:20N 33°44' W 118°17'0 0.0
2014-Oct-18 12:33N 33°44' W 118°17'0 0.0
2014-Oct-18 11:32N 33°44' W 118°17'0 0.0
2014-Oct-18 10:33N 33°44' W 118°17'0 0.0
2014-Oct-18 09:33N 33°44' W 118°17'0 0.0
2014-Oct-18 08:33N 33°44' W 118°17'0 0.0
2014-Oct-18 06:22N 33°44' W 118°17'0 0.0
2014-Oct-18 04:03N 33°44' W 118°17'0 0.0
2014-Oct-18 03:12N 33°44' W 118°17'0 0.0
2014-Oct-18 02:30N 33°44' W 118°17'0 0.0
2014-Oct-18 01:31N 33°44' W 118°17'2 1.8
2014-Oct-18 00:33N 33°45' W 118°16'0 0.2
2014-Oct-17 23:34N 33°46' W 118°16'2 1.9
2014-Oct-17 22:33N 33°44' W 118°17'0 0.0
2014-Oct-17 21:33N 33°44' W 118°17'0 0.0
2014-Oct-17 20:33N 33°44' W 118°17'0 0.0
2014-Oct-17 19:33N 33°44' W 118°17'0 0.0
2014-Oct-17 18:08N 33°44' W 118°17'0 0.0
2014-Oct-17 15:18N 33°44' W 118°17'0 0.0
2014-Oct-17 13:32N 33°44' W 118°17'3 3.3
2014-Oct-17 12:33N 33°46' W 118°14'2 1.7
2014-Oct-17 11:34N 33°45' W 118°13'2 2.3
2014-Oct-17 10:33N 33°43' W 118°15'2 0.2
2014-Oct-17 01:21N 33°44' W 118°17'0 0.0
2014-Oct-17 00:32N 33°44' W 118°17'0 0.0
2014-Oct-16 23:27N 33°44' W 118°17'2 1.9
2014-Oct-16 22:29N 33°43' W 118°15'2 2.5
2014-Oct-16 21:32N 33°44' W 118°12'0 0.4
2014-Oct-16 20:33N 33°44' W 118°12'3 1.5
2014-Oct-16 18:20N 33°44' W 118°17'0 0.0
2014-Oct-16 14:26N 33°44' W 118°17'3 2.6
2014-Oct-16 13:22N 33°43' W 118°13'2 2.2
2014-Oct-16 12:34N 33°44' W 118°11'2 2.1
2014-Oct-16 11:33N 33°43' W 118°13'3 0.3
2014-Oct-16 02:19N 33°44' W 118°17'0 0.0
2014-Oct-15 15:20N 33°44' W 118°17'0 0.0
2014-Oct-15 14:33N 33°44' W 118°17'0 0.0
2014-Oct-15 13:33N 33°44' W 118°17'0 0.0
2014-Oct-15 12:32N 33°44' W 118°17'0 0.0
2014-Oct-15 11:33N 33°44' W 118°17'0 0.0
2014-Oct-15 10:33N 33°44' W 118°17'0 0.0
2014-Oct-15 09:33N 33°44' W 118°17'0 0.0
2014-Oct-15 08:33N 33°44' W 118°17'0 0.0
2014-Oct-15 07:33N 33°44' W 118°17'0 0.0
2014-Oct-15 06:33N 33°44' W 118°17'0 0.0
2014-Oct-15 05:33N 33°44' W 118°17'0 0.0
2014-Oct-15 04:33N 33°44' W 118°17'0 0.0
2014-Oct-15 03:33N 33°44' W 118°17'0 0.0
2014-Oct-15 02:33N 33°44' W 118°17'0 0.0
2014-Oct-15 01:33N 33°44' W 118°17'0 0.0
2014-Oct-15 00:33N 33°44' W 118°17'0 0.0
2014-Oct-14 23:33N 33°44' W 118°17'2 1.8
2014-Oct-14 22:33N 33°45' W 118°16'0 0.3
2014-Oct-14 21:33N 33°46' W 118°16'2 2.0
2014-Oct-14 20:33N 33°44' W 118°17'2 1.7
2014-Oct-14 19:33N 33°43' W 118°15'3 3.1
2014-Oct-14 18:33N 33°46' W 118°16'2 0.6
2014-Oct-14 15:23N 33°44' W 118°17'1 1.5
2014-Oct-14 14:33N 33°44' W 118°15'1 1.4
2014-Oct-14 13:32N 33°42' W 118°15'3 3.5
2014-Oct-14 12:33N 33°44' W 118°11'1 0.7
2014-Oct-14 11:33N 33°43' W 118°11'4 3.9
2014-Oct-14 10:26N 33°44' W 118°17'0 0.0
2014-Oct-14 09:26N 33°44' W 118°17'0 0.0
2014-Oct-14 08:33N 33°44' W 118°17'0 0.0
2014-Oct-14 07:18N 33°44' W 118°17'0 0.0
2014-Oct-14 06:31N 33°44' W 118°17'0 0.0
2014-Oct-14 05:33N 33°44' W 118°17'0 0.0
2014-Oct-14 04:32N 33°44' W 118°17'0 0.0
2014-Oct-14 03:17N 33°44' W 118°17'0 0.0
2014-Oct-14 02:23N 33°44' W 118°17'0 0.0
2014-Oct-14 00:33N 33°44' W 118°17'0 0.0
2014-Oct-13 23:33N 33°44' W 118°17'5 5.1
2014-Oct-13 22:33N 33°44' W 118°10'2 2.4
2014-Oct-13 21:32N 33°42' W 118°10'6 5.8
2014-Oct-13 20:33N 33°44' W 118°17'0 0.0
2014-Oct-13 19:33N 33°44' W 118°17'0 0.0
2014-Oct-13 18:33N 33°44' W 118°17'0 0.0
2014-Oct-13 17:26N 33°44' W 118°17'0 0.0
2014-Oct-13 16:31N 33°44' W 118°17'0 0.0
2014-Oct-13 15:26N 33°44' W 118°17'0 0.0
2014-Oct-13 13:25N 33°44' W 118°17'0 0.0
2014-Oct-13 04:18N 33°44' W 118°17'3 3.9
2014-Oct-13 03:33N 33°44' W 118°13'1 1.0
2014-Oct-13 02:33N 33°44' W 118°12'1 0.8
2014-Oct-13 01:32N 33°44' W 118°12'4 3.4
2014-Oct-13 00:30N 33°44' W 118°17'0 0.0
2014-Oct-12 22:28N 33°44' W 118°17'0 0.0
2014-Oct-12 20:06N 33°44' W 118°17'0 0.0
2014-Oct-12 19:23N 33°44' W 118°17'0 0.0
2014-Oct-12 18:31N 33°44' W 118°17'0 0.0
2014-Oct-12 14:23N 33°44' W 118°17'0 0.0
2014-Oct-12 13:22N 33°44' W 118°17'0 0.0
2014-Oct-12 12:25N 33°44' W 118°17'0 0.0
2014-Oct-12 11:19N 33°44' W 118°17'0 0.0
2014-Oct-12 10:27N 33°44' W 118°17'0 0.0
2014-Oct-12 09:32N 33°44' W 118°17'0 0.0
2014-Oct-12 08:27N 33°44' W 118°17'0 0.0
2014-Oct-12 07:33N 33°44' W 118°17'0 0.0
2014-Oct-12 03:15N 33°44' W 118°17'3 4.1
2014-Oct-12 02:33N 33°46' W 118°14'1 0.7
2014-Oct-12 01:34N 33°46' W 118°13'4 3.5
2014-Oct-12 00:33N 33°44' W 118°10'5 1.5
2014-Oct-11 21:17N 33°44' W 118°17'0 0.0
2014-Oct-11 15:22N 33°44' W 118°16'3 3.6
2014-Oct-11 14:33N 33°44' W 118°13'1 1.4
2014-Oct-11 13:33N 33°46' W 118°13'3 1.1
2014-Oct-11 10:33N 33°44' W 118°17'4 3.7
2014-Oct-11 09:33N 33°45' W 118°12'0 0.2
2014-Oct-11 08:33N 33°45' W 118°12'  
Track history (hours):
 
Tides and Currents Weather Stations Pressure Air Temp Water Temp Dewpoint Dewpoint Depression Visibility Wind Speed Wind Dir Waves Ship Positions

Independence

Owner: Sortwell, Inc. DBA AmNav Maritime Services, Oakland, CA. More information available from US FCC via Universal Licensing System and Coast Guard Vessel Documentation Center.

Last reported at 2014-Oct-21 08:24 UTC. Time now 2014-Oct-21 10:27 UTC.
Position N 33°44' W 118°17'.

Length 24 m; draft 4.9 m.

Type: Tug. MMSI: 367175860.

Date/timePositionNaut miles runAvg speedWind from/ knotsBaromVisibWave heightAir tempDewpointWater temp
2014-Oct-21 08:24N 33°44' W 118°17'1 0.1
2014-Oct-21 01:33N 33°45' W 118°16'1 0.6
2014-Oct-20 23:23N 33°44' W 118°16'0 0.0
2014-Oct-19 20:29N 33°44' W 118°17'0 0.0
2014-Oct-19 19:31N 33°44' W 118°17'0 0.0
2014-Oct-19 16:28N 33°44' W 118°17'1 0.1
2014-Oct-19 01:19N 33°44' W 118°16'1 0.9
2014-Oct-19 00:24N 33°44' W 118°17'0 0.0
2014-Oct-18 23:22N 33°44' W 118°17'0 0.0
2014-Oct-18 22:27N 33°44' W 118°17'3 2.5
2014-Oct-18 21:24N 33°44' W 118°13'2 2.8
2014-Oct-18 20:33N 33°46' W 118°13'0 0.0
2014-Oct-18 19:34N 33°46' W 118°13'4 3.4
2014-Oct-18 18:24N 33°44' W 118°10'2 2.8
2014-Oct-18 17:33N 33°44' W 118°13'3 2.8
2014-Oct-18 16:21N 33°44' W 118°17'4 5.5
2014-Oct-18 15:33N 33°44' W 118°11'2 2.4
2014-Oct-18 14:33N 33°45' W 118°13'3 2.7
2014-Oct-18 13:20N 33°44' W 118°17'0 0.0
2014-Oct-18 12:33N 33°44' W 118°17'0 0.0
2014-Oct-18 11:32N 33°44' W 118°17'0 0.0
2014-Oct-18 10:33N 33°44' W 118°17'0 0.0
2014-Oct-18 09:33N 33°44' W 118°17'0 0.0
2014-Oct-18 08:33N 33°44' W 118°17'0 0.0
2014-Oct-18 06:22N 33°44' W 118°17'0 0.0
2014-Oct-18 04:03N 33°44' W 118°17'0 0.0
2014-Oct-18 03:12N 33°44' W 118°17'0 0.0
2014-Oct-18 02:30N 33°44' W 118°17'0 0.0
2014-Oct-18 01:31N 33°44' W 118°17'2 1.8
2014-Oct-18 00:33N 33°45' W 118°16'0 0.2
2014-Oct-17 23:34N 33°46' W 118°16'2 1.9
2014-Oct-17 22:33N 33°44' W 118°17'0 0.0
2014-Oct-17 21:33N 33°44' W 118°17'0 0.0
2014-Oct-17 20:33N 33°44' W 118°17'0 0.0
2014-Oct-17 19:33N 33°44' W 118°17'0 0.0
2014-Oct-17 18:08N 33°44' W 118°17'0 0.0
2014-Oct-17 15:18N 33°44' W 118°17'0 0.0
2014-Oct-17 13:32N 33°44' W 118°17'3 3.3
2014-Oct-17 12:33N 33°46' W 118°14'2 1.7
2014-Oct-17 11:34N 33°45' W 118°13'2 2.3
2014-Oct-17 10:33N 33°43' W 118°15'2 0.2
2014-Oct-17 01:21N 33°44' W 118°17'0 0.0
2014-Oct-17 00:32N 33°44' W 118°17'0 0.0
2014-Oct-16 23:27N 33°44' W 118°17'2 1.9
2014-Oct-16 22:29N 33°43' W 118°15'2 2.5
2014-Oct-16 21:32N 33°44' W 118°12'0 0.4
2014-Oct-16 20:33N 33°44' W 118°12'3 1.5
2014-Oct-16 18:20N 33°44' W 118°17'0 0.0
2014-Oct-16 14:26N 33°44' W 118°17'3 2.6
2014-Oct-16 13:22N 33°43' W 118°13'2 2.2
2014-Oct-16 12:34N 33°44' W 118°11'2 2.1
2014-Oct-16 11:33N 33°43' W 118°13'3 0.3
2014-Oct-16 02:19N 33°44' W 118°17'0 0.0
2014-Oct-15 15:20N 33°44' W 118°17'0 0.0
2014-Oct-15 14:33N 33°44' W 118°17'0 0.0
2014-Oct-15 13:33N 33°44' W 118°17'0 0.0
2014-Oct-15 12:32N 33°44' W 118°17'0 0.0
2014-Oct-15 11:33N 33°44' W 118°17'0 0.0
2014-Oct-15 10:33N 33°44' W 118°17'0 0.0
2014-Oct-15 09:33N 33°44' W 118°17'0 0.0
2014-Oct-15 08:33N 33°44' W 118°17'0 0.0
2014-Oct-15 07:33N 33°44' W 118°17'0 0.0
2014-Oct-15 06:33N 33°44' W 118°17'0 0.0
2014-Oct-15 05:33N 33°44' W 118°17'0 0.0
2014-Oct-15 04:33N 33°44' W 118°17'0 0.0
2014-Oct-15 03:33N 33°44' W 118°17'0 0.0
2014-Oct-15 02:33N 33°44' W 118°17'0 0.0
2014-Oct-15 01:33N 33°44' W 118°17'0 0.0
2014-Oct-15 00:33N 33°44' W 118°17'0 0.0
2014-Oct-14 23:33N 33°44' W 118°17'2 1.8
2014-Oct-14 22:33N 33°45' W 118°16'0 0.3
2014-Oct-14 21:33N 33°46' W 118°16'2 2.0
2014-Oct-14 20:33N 33°44' W 118°17'2 1.7
2014-Oct-14 19:33N 33°43' W 118°15'3 3.1
2014-Oct-14 18:33N 33°46' W 118°16'2 0.6
2014-Oct-14 15:23N 33°44' W 118°17'1 1.5
2014-Oct-14 14:33N 33°44' W 118°15'1 1.4
2014-Oct-14 13:32N 33°42' W 118°15'3 3.5
2014-Oct-14 12:33N 33°44' W 118°11'1 0.7
2014-Oct-14 11:33N 33°43' W 118°11'4 3.9
2014-Oct-14 10:26N 33°44' W 118°17'0 0.0
2014-Oct-14 09:26N 33°44' W 118°17'0 0.0
2014-Oct-14 08:33N 33°44' W 118°17'0 0.0
2014-Oct-14 07:18N 33°44' W 118°17'0 0.0
2014-Oct-14 06:31N 33°44' W 118°17'0 0.0
2014-Oct-14 05:33N 33°44' W 118°17'0 0.0
2014-Oct-14 04:32N 33°44' W 118°17'0 0.0
2014-Oct-14 03:17N 33°44' W 118°17'0 0.0
2014-Oct-14 02:23N 33°44' W 118°17'0 0.0
2014-Oct-14 00:33N 33°44' W 118°17'0 0.0
2014-Oct-13 23:33N 33°44' W 118°17'5 5.1
2014-Oct-13 22:33N 33°44' W 118°10'2 2.4
2014-Oct-13 21:32N 33°42' W 118°10'6 5.8
2014-Oct-13 20:33N 33°44' W 118°17'0 0.0
2014-Oct-13 19:33N 33°44' W 118°17'0 0.0
2014-Oct-13 18:33N 33°44' W 118°17'0 0.0
2014-Oct-13 17:26N 33°44' W 118°17'0 0.0
2014-Oct-13 16:31N 33°44' W 118°17'0 0.0
2014-Oct-13 15:26N 33°44' W 118°17'0 0.0
2014-Oct-13 13:25N 33°44' W 118°17'0 0.0
2014-Oct-13 04:18N 33°44' W 118°17'3 3.9
2014-Oct-13 03:33N 33°44' W 118°13'1 1.0
2014-Oct-13 02:33N 33°44' W 118°12'1 0.8
2014-Oct-13 01:32N 33°44' W 118°12'4 3.4
2014-Oct-13 00:30N 33°44' W 118°17'0 0.0
2014-Oct-12 22:28N 33°44' W 118°17'0 0.0
2014-Oct-12 20:06N 33°44' W 118°17'0 0.0
2014-Oct-12 19:23N 33°44' W 118°17'0 0.0
2014-Oct-12 18:31N 33°44' W 118°17'0 0.0
2014-Oct-12 14:23N 33°44' W 118°17'0 0.0
2014-Oct-12 13:22N 33°44' W 118°17'0 0.0
2014-Oct-12 12:25N 33°44' W 118°17'0 0.0
2014-Oct-12 11:19N 33°44' W 118°17'0 0.0
2014-Oct-12 10:27N 33°44' W 118°17'0 0.0
2014-Oct-12 09:32N 33°44' W 118°17'0 0.0
2014-Oct-12 08:27N 33°44' W 118°17'0 0.0
2014-Oct-12 07:33N 33°44' W 118°17'0 0.0
2014-Oct-12 03:15N 33°44' W 118°17'3 4.1
2014-Oct-12 02:33N 33°46' W 118°14'1 0.7
2014-Oct-12 01:34N 33°46' W 118°13'4 3.5
2014-Oct-12 00:33N 33°44' W 118°10'5 1.5
2014-Oct-11 21:17N 33°44' W 118°17'0 0.0
2014-Oct-11 15:22N 33°44' W 118°16'3 3.6
2014-Oct-11 14:33N 33°44' W 118°13'1 1.4
2014-Oct-11 13:33N 33°46' W 118°13'3 1.1
2014-Oct-11 10:33N 33°44' W 118°17'4 3.7
2014-Oct-11 09:33N 33°45' W 118°12'0 0.2
2014-Oct-11 08:33N 33°45' W 118°12'  

Dump ship's entire track history